^^
Grace C. Lehan Memorial Weather Station Historical Data
Daily Summary for December 14, 2021 Units:  Both    English   Metric
Daily Weekly Monthly Yearly
  High: Low: Average:
Temperature: 54.7 °F /  12.6 °C 38.2 °F /  3.4 °C 45.1 °F /  7.3 °C
Dew Point: 35.8 °F /  2.1 °C 18.6 °F /  -7.4 °C 28.1 °F /  -2.2 °C
Humidity: 75% 30% 53%
Wind Speed: 7.2mph /  11.6km/h - 1.3mph /  2.1km/h
Wind Gust: 20mph /  32.2km/h - -
Wind- - WNW
Pressure: 30.62 in /  1036.8 hPa 30.16 in /  1021.2 hPa -
Precipitation: 0.00 in /  0 mm    
 
 
Tabular Data for December 14, 2021
Time Temperature Dew Point Pressure Wind Wind Speed Wind Gust Humidity Rainfall Rate (Hourly) solar
00:01 41.4 °F /  5.2 °C 26.9 °F /  -2.8 °C 30.16in /  1021.2hPa SSW 1.2mph /  1.9km/h 2mph /  3.2km/h 56% 0.00in /  0mm 0 W/m2
00:30 41.6 °F /  5.3 °C 27.1 °F /  -2.7 °C 30.16in /  1021.2hPa SSW 1mph /  1.6km/h 3mph /  4.8km/h 56% 0.00in /  0mm 0 W/m2
01:00 40.6 °F /  4.8 °C 26.6 °F /  -3 °C 30.17in /  1021.6hPa Calm   1mph /  1.6km/h 57% 0.00in /  0mm 0 W/m2
01:30 40.3 °F /  4.6 °C 26.3 °F /  -3.2 °C 30.18in /  1021.9hPa Calm     57% 0.00in /  0mm 0 W/m2
02:30 41.1 °F /  5.1 °C 26.2 °F /  -3.2 °C 30.21in /  1022.9hPa Calm   3mph /  4.8km/h 55% 0.00in /  0mm 0 W/m2
03:00 39.3 °F /  4.1 °C 26.2 °F /  -3.2 °C 30.21in /  1022.9hPa Calm   2mph /  3.2km/h 59% 0.00in /  0mm 0 W/m2
03:30 39.3 °F /  4.1 °C 25.8 °F /  -3.4 °C 30.22in /  1023.2hPa Calm   2mph /  3.2km/h 58% 0.00in /  0mm 0 W/m2
04:04 39.9 °F /  4.4 °C 26.7 °F /  -2.9 °C 30.24in /  1023.9hPa WNW 1.3mph /  2.1km/h 3mph /  4.8km/h 58.9% 0.00in /  0mm 0 W/m2
04:09 40.2 °F /  4.6 °C 27.4 °F /  -2.6 °C 30.24in /  1023.9hPa WNW 1.3mph /  2.1km/h 4mph /  6.4km/h 59.8% 0.00in /  0mm 0 W/m2
04:14 40.7 °F /  4.8 °C 27.8 °F /  -2.3 °C 30.25in /  1024.3hPa WNW 0.3mph /  0.5km/h 4mph /  6.4km/h 59.6% 0.00in /  0mm 0 W/m2
04:19 41.1 °F /  5.1 °C 28.3 °F /  -2.1 °C 30.25in /  1024.3hPa WNW 0.8mph /  1.3km/h 4mph /  6.4km/h 60% 0.00in /  0mm 0 W/m2
04:24 41.3 °F /  5.2 °C 28.5 °F /  -1.9 °C 30.25in /  1024.3hPa WNW 1.2mph /  1.9km/h 4mph /  6.4km/h 60% 0.00in /  0mm 0 W/m2
04:29 41.5 °F /  5.3 °C 29.1 °F /  -1.6 °C 30.25in /  1024.3hPa WNW 2.2mph /  3.5km/h 6mph /  9.7km/h 61% 0.00in /  0mm 0 W/m2
04:34 41.7 °F /  5.4 °C 29.3 °F /  -1.5 °C 30.25in /  1024.3hPa WNW 2.2mph /  3.5km/h 6mph /  9.7km/h 61% 0.00in /  0mm 0 W/m2
04:39 41.9 °F /  5.5 °C 29.5 °F /  -1.4 °C 30.26in /  1024.6hPa WNW 1.9mph /  3.1km/h 6mph /  9.7km/h 61% 0.00in /  0mm 0 W/m2
04:44 42 °F /  5.6 °C 29.7 °F /  -1.3 °C 30.26in /  1024.6hPa WNW 2.3mph /  3.7km/h 7mph /  11.3km/h 61.4% 0.00in /  0mm 0 W/m2
04:49 42 °F /  5.6 °C 29.9 °F /  -1.2 °C 30.26in /  1024.6hPa WNW 2.5mph /  4km/h 7mph /  11.3km/h 62% 0.00in /  0mm 0 W/m2
04:54 42 °F /  5.6 °C 29.9 °F /  -1.2 °C 30.26in /  1024.6hPa WNW 1.1mph /  1.8km/h 7mph /  11.3km/h 62% 0.00in /  0mm 0 W/m2
04:59 41.9 °F /  5.5 °C 29.9 °F /  -1.2 °C 30.26in /  1024.6hPa WNW 1.1mph /  1.8km/h 7mph /  11.3km/h 62% 0.00in /  0mm 0 W/m2
05:04 41.8 °F /  5.4 °C 29.8 °F /  -1.2 °C 30.27in /  1024.9hPa WNW 0.6mph /  1km/h 7mph /  11.3km/h 62% 0.00in /  0mm 0 W/m2
05:09 41.7 °F /  5.4 °C 30 °F /  -1.1 °C 30.27in /  1024.9hPa WNW 1.5mph /  2.4km/h 4mph /  6.4km/h 62.8% 0.00in /  0mm 0 W/m2
05:14 41.6 °F /  5.3 °C 30.3 °F /  -0.9 °C 30.27in /  1024.9hPa WNW 1.2mph /  1.9km/h 4mph /  6.4km/h 63.9% 0.00in /  0mm 0 W/m2
05:19 41.5 °F /  5.3 °C 30.4 °F /  -0.9 °C 30.27in /  1024.9hPa WNW 0.4mph /  0.6km/h 4mph /  6.4km/h 64.4% 0.00in /  0mm 0 W/m2
05:24 41.5 °F /  5.3 °C 30.6 °F /  -0.8 °C 30.28in /  1025.3hPa Calm   4mph /  6.4km/h 65% 0.00in /  0mm 0 W/m2
05:29 41.4 °F /  5.2 °C 30.5 °F /  -0.8 °C 30.28in /  1025.3hPa Calm   4mph /  6.4km/h 65% 0.00in /  0mm 0 W/m2
05:34 41.3 °F /  5.2 °C 30.5 °F /  -0.8 °C 30.28in /  1025.3hPa Calm   4mph /  6.4km/h 65.2% 0.00in /  0mm 0 W/m2
05:39 41.1 °F /  5.1 °C 30.6 °F /  -0.8 °C 30.28in /  1025.3hPa Calm     66% 0.00in /  0mm 0 W/m2
05:44 41 °F /  5 °C 30.5 °F /  -0.8 °C 30.29in /  1025.6hPa Calm     66% 0.00in /  0mm 0 W/m2
05:49 40.8 °F /  4.9 °C 30.8 °F /  -0.7 °C 30.29in /  1025.6hPa Calm     67.2% 0.00in /  0mm 0 W/m2
05:54 40.7 °F /  4.8 °C 31 °F /  -0.6 °C 30.30in /  1026hPa Calm     68% 0.00in /  0mm 0 W/m2
05:59 40.6 °F /  4.8 °C 30.9 °F /  -0.6 °C 30.30in /  1026hPa Calm     68% 0.00in /  0mm 0 W/m2
06:04 40.6 °F /  4.8 °C 30.8 °F /  -0.7 °C 30.30in /  1026hPa Calm     68% 0.00in /  0mm 0 W/m2
06:09 40.5 °F /  4.7 °C 31.1 °F /  -0.5 °C 30.30in /  1026hPa Calm     68.9% 0.00in /  0mm 0 W/m2
06:14 40.5 °F /  4.7 °C 31.1 °F /  -0.5 °C 30.30in /  1026hPa Calm     69% 0.00in /  0mm 0 W/m2
06:19 40.5 °F /  4.7 °C 31.4 °F /  -0.3 °C 30.31in /  1026.3hPa Calm     69.8% 0.00in /  0mm 0 W/m2
06:24 40.5 °F /  4.7 °C 31.5 °F /  -0.3 °C 30.32in /  1026.6hPa WNW 0.3mph /  0.5km/h 3mph /  4.8km/h 70% 0.00in /  0mm 0 W/m2
06:29 40.5 °F /  4.7 °C 31.5 °F /  -0.3 °C 30.32in /  1026.6hPa WNW 0.6mph /  1km/h 3mph /  4.8km/h 70% 0.00in /  0mm 0 W/m2
06:34 40.5 °F /  4.7 °C 31.7 °F /  -0.2 °C 30.32in /  1026.6hPa WNW 0.8mph /  1.3km/h 3mph /  4.8km/h 70.7% 0.00in /  0mm 0 W/m2
06:39 40.5 °F /  4.7 °C 31.9 °F /  -0.1 °C 30.33in /  1027hPa WNW 1.9mph /  3.1km/h 4mph /  6.4km/h 71.2% 0.00in /  0mm 0 W/m2
06:44 40.4 °F /  4.7 °C 31.9 °F /  -0.1 °C 30.33in /  1027hPa WNW 2.1mph /  3.4km/h 4mph /  6.4km/h 71.5% 0.00in /  0mm 0 W/m2
06:49 40.3 °F /  4.6 °C 31.6 °F /  -0.2 °C 30.33in /  1027hPa WNW 0.3mph /  0.5km/h 4mph /  6.4km/h 71% 0.00in /  0mm 0 W/m2
06:54 40.1 °F /  4.5 °C 31.7 °F /  -0.2 °C 30.34in /  1027.3hPa Calm   4mph /  6.4km/h 71.7% 0.00in /  0mm 0 W/m2
06:59 39.9 °F /  4.4 °C 31.7 °F /  -0.2 °C 30.33in /  1027hPa WNW 0.6mph /  1km/h 4mph /  6.4km/h 72.3% 0.00in /  0mm 0 W/m2
07:04 39.8 °F /  4.3 °C 31.9 °F /  -0.1 °C 30.34in /  1027.3hPa WNW 1.2mph /  1.9km/h 4mph /  6.4km/h 73.2% 0.00in /  0mm 0 W/m2
07:09 39.7 °F /  4.3 °C 32.1 °F /  0.1 °C 30.34in /  1027.3hPa WNW 1.7mph /  2.7km/h 4mph /  6.4km/h 74% 0.00in /  0mm 5 W/m2
07:14 39.8 °F /  4.3 °C 32.4 °F /  0.2 °C 30.34in /  1027.3hPa WNW 2.3mph /  3.7km/h 7mph /  11.3km/h 74.7% 0.00in /  0mm 7 W/m2
07:19 39.8 °F /  4.3 °C 32.5 °F /  0.3 °C 30.34in /  1027.3hPa NW 0.8mph /  1.3km/h 7mph /  11.3km/h 75% 0.00in /  0mm 11 W/m2
07:24 39.9 °F /  4.4 °C 32.6 °F /  0.3 °C 30.35in /  1027.7hPa Calm   7mph /  11.3km/h 75% 0.00in /  0mm 12 W/m2
07:29 39.8 °F /  4.3 °C 32.6 °F /  0.3 °C 30.35in /  1027.7hPa Calm   7mph /  11.3km/h 75% 0.00in /  0mm 18 W/m2
07:34 39.9 °F /  4.4 °C 32.6 °F /  0.3 °C 30.35in /  1027.7hPa NW 1.2mph /  1.9km/h 7mph /  11.3km/h 75% 0.00in /  0mm 18 W/m2
07:39 39.9 °F /  4.4 °C 32.7 °F /  0.4 °C 30.35in /  1027.7hPa NW 2mph /  3.2km/h 4mph /  6.4km/h 75% 0.00in /  0mm 40 W/m2
07:44 40.1 °F /  4.5 °C 32.8 °F /  0.4 °C 30.36in /  1028hPa NW 1.6mph /  2.6km/h 4mph /  6.4km/h 75% 0.00in /  0mm 51 W/m2
07:49 40.4 °F /  4.7 °C 33.1 °F /  0.6 °C 30.36in /  1028hPa NW 3.2mph /  5.1km/h 5mph /  8km/h 75% 0.00in /  0mm 62 W/m2
07:54 40.7 °F /  4.8 °C 33.1 °F /  0.6 °C 30.36in /  1028hPa NW 2.5mph /  4km/h 6mph /  9.7km/h 74.2% 0.00in /  0mm 69 W/m2
07:59 41 °F /  5 °C 33.7 °F /  0.9 °C 30.37in /  1028.3hPa NW 3mph /  4.8km/h 9mph /  14.5km/h 74.8% 0.00in /  0mm 86 W/m2
08:04 42 °F /  5.6 °C 34.3 °F /  1.3 °C 30.36in /  1028hPa NW 1mph /  1.6km/h 1mph /  1.6km/h 74% 0.00in /  0mm 90 W/m2
08:09 42.3 °F /  5.7 °C 34.4 °F /  1.3 °C 30.37in /  1028.3hPa NW 0.4mph /  0.6km/h 3mph /  4.8km/h 73.3% 0.00in /  0mm 125 W/m2
08:14 43 °F /  6.1 °C 34.7 °F /  1.5 °C 30.38in /  1028.7hPa NW 0.6mph /  1km/h 5mph /  8km/h 72.3% 0.00in /  0mm 142 W/m2
08:19 43.8 °F /  6.6 °C 35.1 °F /  1.7 °C 30.38in /  1028.7hPa NNW 1.8mph /  2.9km/h 5mph /  8km/h 71.3% 0.00in /  0mm 160 W/m2
08:24 44.5 °F /  6.9 °C 35.6 °F /  2 °C 30.38in /  1028.7hPa NNW 2.2mph /  3.5km/h 11mph /  17.7km/h 70.7% 0.00in /  0mm 181 W/m2
08:29 45.2 °F /  7.3 °C 35.6 °F /  2 °C 30.39in /  1029hPa NW 2.2mph /  3.5km/h 11mph /  17.7km/h 68.7% 0.00in /  0mm 158 W/m2
08:34 45.8 °F /  7.7 °C 35.5 °F /  1.9 °C 30.38in /  1028.7hPa NNW 2.6mph /  4.2km/h 11mph /  17.7km/h 67.2% 0.00in /  0mm 165 W/m2
08:39 46.1 °F /  7.8 °C 35.7 °F /  2.1 °C 30.39in /  1029hPa NNW 2.7mph /  4.3km/h 9mph /  14.5km/h 66.8% 0.00in /  0mm 176 W/m2
08:44 46.4 °F /  8 °C 35.7 °F /  2.1 °C 30.39in /  1029hPa NW 3.3mph /  5.3km/h 9mph /  14.5km/h 66.1% 0.00in /  0mm 158 W/m2
08:49 46.5 °F /  8.1 °C 35.6 °F /  2 °C 30.39in /  1029hPa NW 1.9mph /  3.1km/h 9mph /  14.5km/h 65.5% 0.00in /  0mm 185 W/m2
08:54 46.7 °F /  8.2 °C 35.7 °F /  2.1 °C 30.39in /  1029hPa NNW 4.2mph /  6.8km/h 11mph /  17.7km/h 65.4% 0.00in /  0mm 223 W/m2
08:59 47 °F /  8.3 °C 35.8 °F /  2.1 °C 30.39in /  1029hPa NW 5mph /  8km/h 13mph /  20.9km/h 64.9% 0.00in /  0mm 267 W/m2
09:04 47.4 °F /  8.6 °C 35.7 °F /  2.1 °C 30.40in /  1029.3hPa NNW 6.1mph /  9.8km/h 14mph /  22.5km/h 63.6% 0.00in /  0mm 234 W/m2
09:09 47.6 °F /  8.7 °C 35.8 °F /  2.1 °C 30.40in /  1029.3hPa NNW 2.9mph /  4.7km/h 14mph /  22.5km/h 63.3% 0.00in /  0mm 267 W/m2
09:14 47.9 °F /  8.8 °C 35.8 °F /  2.1 °C 30.40in /  1029.3hPa NW 5.9mph /  9.5km/h 14mph /  22.5km/h 62.8% 0.00in /  0mm 267 W/m2
09:19 47.9 °F /  8.8 °C 35.4 °F /  1.9 °C 30.41in /  1029.7hPa NNW 6.3mph /  10.1km/h 18mph /  29km/h 61.8% 0.00in /  0mm 269 W/m2
09:24 47.9 °F /  8.8 °C 35.5 °F /  1.9 °C 30.41in /  1029.7hPa NNW 5mph /  8km/h 18mph /  29km/h 62% 0.00in /  0mm 237 W/m2
09:29 48 °F /  8.9 °C 35 °F /  1.7 °C 30.41in /  1029.7hPa NNW 7.2mph /  11.6km/h 20mph /  32.2km/h 60.5% 0.00in /  0mm 225 W/m2
09:34 47.9 °F /  8.8 °C 34.6 °F /  1.4 °C 30.41in /  1029.7hPa NNW 5.9mph /  9.5km/h 20mph /  32.2km/h 59.7% 0.00in /  0mm 202 W/m2
09:39 48 °F /  8.9 °C 34.8 °F /  1.6 °C 30.42in /  1030hPa NNW 2.5mph /  4km/h 17mph /  27.4km/h 60% 0.00in /  0mm 221 W/m2
09:44 48.3 °F /  9.1 °C 34.7 °F /  1.5 °C 30.42in /  1030hPa NNW 6.6mph /  10.6km/h 17mph /  27.4km/h 59.2% 0.00in /  0mm 218 W/m2
09:49 48.5 °F /  9.2 °C 34.7 °F /  1.5 °C 30.42in /  1030hPa NNW 4.1mph /  6.6km/h 17mph /  27.4km/h 58.7% 0.00in /  0mm 213 W/m2
09:54 48.6 °F /  9.2 °C 34.6 °F /  1.4 °C 30.42in /  1030hPa NNW 3.3mph /  5.3km/h 17mph /  27.4km/h 58.1% 0.00in /  0mm 178 W/m2
09:59 48.6 °F /  9.2 °C 34.6 °F /  1.4 °C 30.43in /  1030.4hPa NNW 1.6mph /  2.6km/h 17mph /  27.4km/h 58.2% 0.00in /  0mm 211 W/m2
10:04 48.8 °F /  9.3 °C 34.7 °F /  1.5 °C 30.43in /  1030.4hPa NW 3.5mph /  5.6km/h 17mph /  27.4km/h 58% 0.00in /  0mm 221 W/m2
10:09 49 °F /  9.4 °C 34.7 °F /  1.5 °C 30.43in /  1030.4hPa NNW 4.9mph /  7.9km/h 11mph /  17.7km/h 57.5% 0.00in /  0mm 352 W/m2
10:14 49.6 °F /  9.8 °C 35.3 °F /  1.8 °C 30.43in /  1030.4hPa NNW 1.5mph /  2.4km/h 11mph /  17.7km/h 57.7% 0.00in /  0mm 399 W/m2
10:19 50.4 °F /  10.2 °C 35.6 °F /  2 °C 30.44in /  1030.7hPa NW 4.1mph /  6.6km/h 16mph /  25.7km/h 56.7% 0.00in /  0mm 461 W/m2
10:24 51 °F /  10.6 °C 35.3 °F /  1.8 °C 30.44in /  1030.7hPa NW 4.8mph /  7.7km/h 16mph /  25.7km/h 54.8% 0.00in /  0mm 429 W/m2
10:29 51 °F /  10.6 °C 34.9 °F /  1.6 °C 30.44in /  1030.7hPa NW 4.4mph /  7.1km/h 16mph /  25.7km/h 54% 0.00in /  0mm 431 W/m2
10:34 50.9 °F /  10.5 °C 34.7 °F /  1.5 °C 30.44in /  1030.7hPa NW 4.6mph /  7.4km/h 16mph /  25.7km/h 53.8% 0.00in /  0mm 510 W/m2
10:39 50.7 °F /  10.4 °C 34.5 °F /  1.4 °C 30.44in /  1030.7hPa NNW 5.9mph /  9.5km/h 15mph /  24.1km/h 53.5% 0.00in /  0mm 322 W/m2
10:44 50.6 °F /  10.3 °C 34.6 °F /  1.4 °C 30.44in /  1030.7hPa NW 4.7mph /  7.6km/h 15mph /  24.1km/h 54% 0.00in /  0mm 341 W/m2
10:49 50.4 °F /  10.2 °C 33.9 °F /  1.1 °C 30.44in /  1030.7hPa NW 4.2mph /  6.8km/h 15mph /  24.1km/h 53% 0.00in /  0mm 165 W/m2
10:54 50 °F /  10 °C 33.9 °F /  1.1 °C 30.44in /  1030.7hPa NNW 3.9mph /  6.3km/h 15mph /  24.1km/h 53.7% 0.00in /  0mm 156 W/m2
10:59 49.7 °F /  9.8 °C 33.7 °F /  0.9 °C 30.43in /  1030.4hPa NW 3.4mph /  5.5km/h 15mph /  24.1km/h 53.9% 0.00in /  0mm 151 W/m2
11:04 49.4 °F /  9.7 °C 33.5 °F /  0.8 °C 30.43in /  1030.4hPa NW 2.7mph /  4.3km/h 15mph /  24.1km/h 54% 0.00in /  0mm 121 W/m2
11:09 49.2 °F /  9.6 °C 33.6 °F /  0.9 °C 30.43in /  1030.4hPa NNW 0.9mph /  1.4km/h 10mph /  16.1km/h 54.6% 0.00in /  0mm 107 W/m2
11:14 49.2 °F /  9.6 °C 33.4 °F /  0.8 °C 30.43in /  1030.4hPa NW 2.3mph /  3.7km/h 10mph /  16.1km/h 54.3% 0.00in /  0mm 137 W/m2
11:19 49.3 °F /  9.6 °C 33.4 °F /  0.8 °C 30.43in /  1030.4hPa NNW 1.3mph /  2.1km/h 10mph /  16.1km/h 54.1% 0.00in /  0mm 160 W/m2
11:24 49.6 °F /  9.8 °C 33.9 °F /  1.1 °C 30.43in /  1030.4hPa NW 2.9mph /  4.7km/h 12mph /  19.3km/h 54.6% 0.00in /  0mm 183 W/m2
11:29 50 °F /  10 °C 34.5 °F /  1.4 °C 30.43in /  1030.4hPa WNW 2.3mph /  3.7km/h 12mph /  19.3km/h 55% 0.00in /  0mm 265 W/m2
11:34 50.4 °F /  10.2 °C 34.6 °F /  1.4 °C 30.43in /  1030.4hPa NW 1.8mph /  2.9km/h 12mph /  19.3km/h 54.5% 0.00in /  0mm 399 W/m2
11:39 50.8 °F /  10.4 °C 34.3 °F /  1.3 °C 30.44in /  1030.7hPa WNW 3.7mph /  6km/h 14mph /  22.5km/h 53% 0.00in /  0mm 330 W/m2
11:44 51 °F /  10.6 °C 33.5 °F /  0.8 °C 30.44in /  1030.7hPa NW 3.4mph /  5.5km/h 14mph /  22.5km/h 51% 0.00in /  0mm 255 W/m2
11:49 51 °F /  10.6 °C 33.3 °F /  0.7 °C 30.44in /  1030.7hPa NW 3.9mph /  6.3km/h 14mph /  22.5km/h 50.5% 0.00in /  0mm 188 W/m2
11:54 51 °F /  10.6 °C 33.1 °F /  0.6 °C 30.44in /  1030.7hPa NW 5mph /  8km/h 14mph /  22.5km/h 50.2% 0.00in /  0mm 130 W/m2
11:59 50.6 °F /  10.3 °C 32.6 °F /  0.3 °C 30.44in /  1030.7hPa NW 1.3mph /  2.1km/h 14mph /  22.5km/h 49.8% 0.00in /  0mm 118 W/m2
12:00 50.4 °F /  10.2 °C 32.5 °F /  0.3 °C 30.44in /  1030.7hPa WNW 1mph /  1.6km/h 14mph /  22.5km/h 50% 0.00in /  0mm 91 W/m2
12:09 50.1 °F /  10.1 °C 32.9 °F /  0.5 °C 30.44in /  1030.7hPa NNW 1.9mph /  3.1km/h 6mph /  9.7km/h 51.5% 0.00in /  0mm 434 W/m2
12:14 50.3 °F /  10.2 °C 33.3 °F /  0.7 °C 30.44in /  1030.7hPa NNW 2.4mph /  3.9km/h 6mph /  9.7km/h 51.9% 0.00in /  0mm 501 W/m2
12:19 50.8 °F /  10.4 °C 33.3 °F /  0.7 °C 30.44in /  1030.7hPa NNW 2.2mph /  3.5km/h 7mph /  11.3km/h 51% 0.00in /  0mm 327 W/m2
12:24 51.1 °F /  10.6 °C 33.8 °F /  1 °C 30.43in /  1030.4hPa NW 0.5mph /  0.8km/h 7mph /  11.3km/h 51.3% 0.00in /  0mm 70 W/m2
12:29 51.3 °F /  10.7 °C 33.5 °F /  0.8 °C 30.44in /  1030.7hPa NW 2.4mph /  3.9km/h 11mph /  17.7km/h 50.5% 0.00in /  0mm 158 W/m2
12:34 51.4 °F /  10.8 °C 33.5 °F /  0.8 °C 30.44in /  1030.7hPa NW 3.3mph /  5.3km/h 11mph /  17.7km/h 50.2% 0.00in /  0mm 422 W/m2
12:39 51.6 °F /  10.9 °C 33.2 °F /  0.7 °C 30.44in /  1030.7hPa NW 1.9mph /  3.1km/h 11mph /  17.7km/h 49.3% 0.00in /  0mm 471 W/m2
12:44 52.1 °F /  11.2 °C 33.6 °F /  0.9 °C 30.44in /  1030.7hPa NW 3.3mph /  5.3km/h 11mph /  17.7km/h 49.2% 0.00in /  0mm 466 W/m2
12:49 52.6 °F /  11.4 °C 33.4 °F /  0.8 °C 30.44in /  1030.7hPa NW 2.3mph /  3.7km/h 11mph /  17.7km/h 47.8% 0.00in /  0mm 244 W/m2
12:54 52.9 °F /  11.6 °C 33.6 °F /  0.9 °C 30.43in /  1030.4hPa NW 2mph /  3.2km/h 11mph /  17.7km/h 47.8% 0.00in /  0mm 167 W/m2
12:59 53.1 °F /  11.7 °C 33.2 °F /  0.7 °C 30.43in /  1030.4hPa NNW 2.1mph /  3.4km/h 11mph /  17.7km/h 46.7% 0.00in /  0mm 79 W/m2
13:04 53.2 °F /  11.8 °C 33.5 °F /  0.8 °C 30.43in /  1030.4hPa NNW 1mph /  1.6km/h 11mph /  17.7km/h 47% 0.00in /  0mm 334 W/m2
13:09 53.4 °F /  11.9 °C 33.2 °F /  0.7 °C 30.44in /  1030.7hPa NNW 1mph /  1.6km/h 5mph /  8km/h 46.1% 0.00in /  0mm 209 W/m2
13:14 53.6 °F /  12 °C 33.1 °F /  0.6 °C 30.44in /  1030.7hPa NNW 1mph /  1.6km/h 6mph /  9.7km/h 45.6% 0.00in /  0mm 179 W/m2
13:19 54 °F /  12.2 °C 32.4 °F /  0.2 °C 30.44in /  1030.7hPa NNW 1.8mph /  2.9km/h 6mph /  9.7km/h 43.7% 0.00in /  0mm 234 W/m2
13:24 54.4 °F /  12.4 °C 30.9 °F /  -0.6 °C 30.44in /  1030.7hPa NNW 0.6mph /  1km/h 6mph /  9.7km/h 40.6% 0.00in /  0mm 341 W/m2
13:29 54.7 °F /  12.6 °C 31.3 °F /  -0.4 °C 30.44in /  1030.7hPa NNW 1.7mph /  2.7km/h 6mph /  9.7km/h 40.8% 0.00in /  0mm 308 W/m2
13:34 54.6 °F /  12.6 °C 31 °F /  -0.6 °C 30.43in /  1030.4hPa WNW 2mph /  3.2km/h 6mph /  9.7km/h 40.3% 0.00in /  0mm 207 W/m2
13:39 54.4 °F /  12.4 °C 31.2 °F /  -0.4 °C 30.43in /  1030.4hPa NW 0.1mph /  0.2km/h 6mph /  9.7km/h 41% 0.00in /  0mm 209 W/m2
13:44 54.3 °F /  12.4 °C 30.8 °F /  -0.7 °C 30.43in /  1030.4hPa WNW 2.3mph /  3.7km/h 6mph /  9.7km/h 40.5% 0.00in /  0mm 135 W/m2
13:49 53.9 °F /  12.2 °C 30.3 °F /  -0.9 °C 30.44in /  1030.7hPa NW 0.6mph /  1km/h 6mph /  9.7km/h 40.3% 0.00in /  0mm 160 W/m2
13:54 53.6 °F /  12 °C 30 °F /  -1.1 °C 30.44in /  1030.7hPa North 2.4mph /  3.9km/h 12mph /  19.3km/h 40.1% 0.00in /  0mm 160 W/m2
13:59 53.3 °F /  11.8 °C 29.8 °F /  -1.2 °C 30.44in /  1030.7hPa NNW 0.6mph /  1km/h 12mph /  19.3km/h 40.2% 0.00in /  0mm 285 W/m2
14:04 53.5 °F /  11.9 °C 30.1 °F /  -1.1 °C 30.44in /  1030.7hPa North 0.3mph /  0.5km/h 12mph /  19.3km/h 40.5% 0.00in /  0mm 276 W/m2
14:09 53.8 °F /  12.1 °C 29.5 °F /  -1.4 °C 30.44in /  1030.7hPa NNE 0.4mph /  0.6km/h 4mph /  6.4km/h 39.2% 0.00in /  0mm 178 W/m2
14:14 54.2 °F /  12.3 °C 29.4 °F /  -1.4 °C 30.44in /  1030.7hPa North 0.3mph /  0.5km/h 4mph /  6.4km/h 38.3% 0.00in /  0mm 158 W/m2
14:19 54.5 °F /  12.5 °C 29.1 °F /  -1.6 °C 30.44in /  1030.7hPa NNW 1.3mph /  2.1km/h 5mph /  8km/h 37.6% 0.00in /  0mm 142 W/m2
14:22 54.5 °F /  12.5 °C 28.6 °F /  -1.9 °C 30.44in /  1030.7hPa NNW 1.2mph /  1.9km/h 5mph /  8km/h 36.8% 0.00in /  0mm 178 W/m2
14:30 54.4 °F /  12.4 °C 27.3 °F /  -2.6 °C 30.44in /  1030.7hPa NNW 1mph /  1.6km/h 7mph /  11.3km/h 35% 0.00in /  0mm 127 W/m2
15:00 53.1 °F /  11.7 °C 23.3 °F /  -4.8 °C 30.46in /  1031.4hPa NW 2mph /  3.2km/h 11mph /  17.7km/h 31% 0.00in /  0mm 25 W/m2
15:30 51.5 °F /  10.8 °C 21.9 °F /  -5.6 °C 30.48in /  1032.1hPa North 1mph /  1.6km/h 9mph /  14.5km/h 31% 0.00in /  0mm 19 W/m2
16:04 50.2 °F /  10.1 °C 20.8 °F /  -6.2 °C 30.50in /  1032.7hPa North 0.1mph /  0.2km/h 9mph /  14.5km/h 31% 0.00in /  0mm 19 W/m2
16:09 50 °F /  10 °C 20.5 °F /  -6.4 °C 30.50in /  1032.7hPa NNW 0.2mph /  0.3km/h 2mph /  3.2km/h 31% 0.00in /  0mm 7 W/m2
16:14 49.7 °F /  9.8 °C 20.3 °F /  -6.5 °C 30.50in /  1032.7hPa NNW 0.3mph /  0.5km/h 3mph /  4.8km/h 31% 0.00in /  0mm 5 W/m2
16:19 49.5 °F /  9.7 °C 20.3 °F /  -6.5 °C 30.50in /  1032.7hPa NNW 0.2mph /  0.3km/h 3mph /  4.8km/h 31.1% 0.00in /  0mm 0 W/m2
16:24 49.4 °F /  9.7 °C 20 °F /  -6.7 °C 30.51in /  1033.1hPa NNW 0.1mph /  0.2km/h 3mph /  4.8km/h 31% 0.00in /  0mm 0 W/m2
16:29 49.2 °F /  9.6 °C 19.7 °F /  -6.8 °C 30.51in /  1033.1hPa Calm   3mph /  4.8km/h 30.9% 0.00in /  0mm 0 W/m2
16:34 49 °F /  9.4 °C 18.9 °F /  -7.3 °C 30.51in /  1033.1hPa Calm   3mph /  4.8km/h 30% 0.00in /  0mm 0 W/m2
16:39 48.8 °F /  9.3 °C 19.2 °F /  -7.1 °C 30.51in /  1033.1hPa Calm     30.6% 0.00in /  0mm 0 W/m2
16:44 48.5 °F /  9.2 °C 19.3 °F /  -7.1 °C 30.51in /  1033.1hPa Calm     31% 0.00in /  0mm 0 W/m2
16:49 48.3 °F /  9.1 °C 19.3 °F /  -7.1 °C 30.51in /  1033.1hPa Calm     31.3% 0.00in /  0mm 0 W/m2
16:54 48 °F /  8.9 °C 18.9 °F /  -7.3 °C 30.52in /  1033.4hPa Calm     31% 0.00in /  0mm 0 W/m2
16:59 47.8 °F /  8.8 °C 18.6 °F /  -7.4 °C 30.52in /  1033.4hPa Calm     31% 0.00in /  0mm 0 W/m2
17:04 47.6 °F /  8.7 °C 18.7 °F /  -7.4 °C 30.52in /  1033.4hPa Calm     31.3% 0.00in /  0mm 0 W/m2
17:09 47.3 °F /  8.5 °C 19.1 °F /  -7.2 °C 30.53in /  1033.7hPa Calm     32.1% 0.00in /  0mm 0 W/m2
17:14 47.1 °F /  8.4 °C 19.5 °F /  -6.9 °C 30.53in /  1033.7hPa Calm     33% 0.00in /  0mm 0 W/m2
17:19 46.8 °F /  8.2 °C 19.3 °F /  -7.1 °C 30.53in /  1033.7hPa Calm     33% 0.00in /  0mm 0 W/m2
17:24 46.6 °F /  8.1 °C 19.5 °F /  -6.9 °C 30.54in /  1034.1hPa Calm     33.7% 0.00in /  0mm 0 W/m2
17:29 46.3 °F /  7.9 °C 20.1 °F /  -6.6 °C 30.54in /  1034.1hPa Calm     34.8% 0.00in /  0mm 0 W/m2
17:34 46 °F /  7.8 °C 20.6 °F /  -6.3 °C 30.54in /  1034.1hPa Calm     36% 0.00in /  0mm 0 W/m2
17:39 45.7 °F /  7.6 °C 20.3 °F /  -6.5 °C 30.54in /  1034.1hPa Calm     36% 0.00in /  0mm 0 W/m2
17:44 45.4 °F /  7.4 °C 20 °F /  -6.7 °C 30.55in /  1034.4hPa Calm     36% 0.00in /  0mm 0 W/m2
17:49 45.1 °F /  7.3 °C 19.8 °F /  -6.8 °C 30.55in /  1034.4hPa Calm     36.1% 0.00in /  0mm 0 W/m2
17:54 44.8 °F /  7.1 °C 20.5 °F /  -6.4 °C 30.55in /  1034.4hPa NNW 0.3mph /  0.5km/h 3mph /  4.8km/h 37.6% 0.00in /  0mm 0 W/m2
17:59 44.5 °F /  6.9 °C 20.5 °F /  -6.4 °C 30.55in /  1034.4hPa NNW 0.5mph /  0.8km/h 5mph /  8km/h 38% 0.00in /  0mm 0 W/m2
18:04 44.3 °F /  6.8 °C 20.3 °F /  -6.5 °C 30.55in /  1034.4hPa Calm   5mph /  8km/h 38% 0.00in /  0mm 0 W/m2
18:09 44.2 °F /  6.8 °C 20.2 °F /  -6.6 °C 30.55in /  1034.4hPa Calm   2mph /  3.2km/h 38% 0.00in /  0mm 0 W/m2
18:14 44 °F /  6.7 °C 20.1 °F /  -6.6 °C 30.55in /  1034.4hPa Calm   2mph /  3.2km/h 38.1% 0.00in /  0mm 0 W/m2
18:19 43.8 °F /  6.6 °C 20.5 °F /  -6.4 °C 30.56in /  1034.8hPa Calm   2mph /  3.2km/h 39% 0.00in /  0mm 0 W/m2
18:24 43.7 °F /  6.5 °C 20.9 °F /  -6.2 °C 30.56in /  1034.8hPa Calm   2mph /  3.2km/h 39.9% 0.00in /  0mm 0 W/m2
18:29 43.5 °F /  6.4 °C 20.8 °F /  -6.2 °C 30.56in /  1034.8hPa Calm   2mph /  3.2km/h 40% 0.00in /  0mm 0 W/m2
18:34 43.4 °F /  6.3 °C 20.7 °F /  -6.3 °C 30.56in /  1034.8hPa Calm   2mph /  3.2km/h 40% 0.00in /  0mm 0 W/m2
18:39 43.2 °F /  6.2 °C 21.1 °F /  -6.1 °C 30.56in /  1034.8hPa Calm   1mph /  1.6km/h 41% 0.00in /  0mm 0 W/m2
18:44 43 °F /  6.1 °C 21.4 °F /  -5.9 °C 30.56in /  1034.8hPa Calm   1mph /  1.6km/h 41.7% 0.00in /  0mm 0 W/m2
18:49 42.9 °F /  6.1 °C 21.4 °F /  -5.9 °C 30.56in /  1034.8hPa Calm   1mph /  1.6km/h 42% 0.00in /  0mm 0 W/m2
18:54 42.7 °F /  5.9 °C 21.2 °F /  -6 °C 30.56in /  1034.8hPa Calm   1mph /  1.6km/h 42% 0.00in /  0mm 0 W/m2
18:59 42.5 °F /  5.8 °C 21.1 °F /  -6.1 °C 30.57in /  1035.1hPa Calm   1mph /  1.6km/h 42% 0.00in /  0mm 0 W/m2
19:04 42.3 °F /  5.7 °C 21.2 °F /  -6 °C 30.57in /  1035.1hPa Calm   1mph /  1.6km/h 42.6% 0.00in /  0mm 0 W/m2
19:09 42.1 °F /  5.6 °C 21.3 °F /  -5.9 °C 30.57in /  1035.1hPa Calm   1mph /  1.6km/h 43.2% 0.00in /  0mm 0 W/m2
19:14 41.9 °F /  5.5 °C 21.8 °F /  -5.7 °C 30.58in /  1035.4hPa Calm   1mph /  1.6km/h 44.4% 0.00in /  0mm 0 W/m2
19:19 41.7 °F /  5.4 °C 22 °F /  -5.6 °C 30.58in /  1035.4hPa Calm   1mph /  1.6km/h 45.1% 0.00in /  0mm 0 W/m2
19:24 41.5 °F /  5.3 °C 21.7 °F /  -5.7 °C 30.58in /  1035.4hPa Calm   1mph /  1.6km/h 45% 0.00in /  0mm 0 W/m2
19:29 41.3 °F /  5.2 °C 21.7 °F /  -5.7 °C 30.58in /  1035.4hPa Calm   1mph /  1.6km/h 45.1% 0.00in /  0mm 0 W/m2
19:34 41.1 °F /  5.1 °C 21.7 °F /  -5.7 °C 30.58in /  1035.4hPa Calm   1mph /  1.6km/h 45.6% 0.00in /  0mm 0 W/m2
19:39 41 °F /  5 °C 21.3 °F /  -5.9 °C 30.59in /  1035.8hPa Calm     45% 0.00in /  0mm 0 W/m2
19:44 40.9 °F /  4.9 °C 21.2 °F /  -6 °C 30.59in /  1035.8hPa Calm     45% 0.00in /  0mm 0 W/m2
19:49 40.7 °F /  4.8 °C 21.5 °F /  -5.8 °C 30.59in /  1035.8hPa Calm     45.9% 0.00in /  0mm 0 W/m2
19:54 40.6 °F /  4.8 °C 21.7 °F /  -5.7 °C 30.59in /  1035.8hPa Calm     46.5% 0.00in /  0mm 0 W/m2
19:59 40.5 °F /  4.7 °C 21.9 °F /  -5.6 °C 30.59in /  1035.8hPa Calm     47% 0.00in /  0mm 0 W/m2
20:04 40.3 °F /  4.6 °C 21.2 °F /  -6 °C 30.59in /  1035.8hPa Calm     46% 0.00in /  0mm 0 W/m2
20:09 40.3 °F /  4.6 °C 21.3 °F /  -5.9 °C 30.59in /  1035.8hPa Calm     46.4% 0.00in /  0mm 0 W/m2
20:14 40.1 °F /  4.5 °C 21.5 °F /  -5.8 °C 30.59in /  1035.8hPa Calm     47% 0.00in /  0mm 0 W/m2
20:19 40 °F /  4.4 °C 21.4 °F /  -5.9 °C 30.59in /  1035.8hPa Calm     47% 0.00in /  0mm 0 W/m2
20:24 39.9 °F /  4.4 °C 21.4 °F /  -5.9 °C 30.59in /  1035.8hPa Calm     47.1% 0.00in /  0mm 0 W/m2
20:29 39.8 °F /  4.3 °C 22.2 °F /  -5.4 °C 30.59in /  1035.8hPa Calm     49% 0.00in /  0mm 0 W/m2
20:34 39.5 °F /  4.2 °C 22.3 °F /  -5.4 °C 30.60in /  1036.1hPa NNW 0.1mph /  0.2km/h 2mph /  3.2km/h 49.7% 0.00in /  0mm 0 W/m2
20:39 39.4 °F /  4.1 °C 22.3 °F /  -5.4 °C 30.60in /  1036.1hPa Calm   2mph /  3.2km/h 49.9% 0.00in /  0mm 0 W/m2
20:44 39.3 °F /  4.1 °C 21.8 °F /  -5.7 °C 30.60in /  1036.1hPa Calm   2mph /  3.2km/h 49.1% 0.00in /  0mm 0 W/m2
20:49 39.3 °F /  4.1 °C 21.8 °F /  -5.7 °C 30.60in /  1036.1hPa Calm   2mph /  3.2km/h 49% 0.00in /  0mm 0 W/m2
20:54 39.3 °F /  4.1 °C 22 °F /  -5.6 °C 30.60in /  1036.1hPa Calm   2mph /  3.2km/h 49.5% 0.00in /  0mm 0 W/m2
20:59 39.2 °F /  4 °C 21.7 °F /  -5.7 °C 30.60in /  1036.1hPa NNW 0.1mph /  0.2km/h 3mph /  4.8km/h 49% 0.00in /  0mm 0 W/m2
21:04 39.2 °F /  4 °C 21.7 °F /  -5.7 °C 30.60in /  1036.1hPa NNW 0.2mph /  0.3km/h 3mph /  4.8km/h 49% 0.00in /  0mm 0 W/m2
21:09 39.3 °F /  4.1 °C 21.7 °F /  -5.7 °C 30.60in /  1036.1hPa Calm   3mph /  4.8km/h 49% 0.00in /  0mm 0 W/m2
21:14 39.3 °F /  4.1 °C 21.9 °F /  -5.6 °C 30.60in /  1036.1hPa NNW 0.1mph /  0.2km/h 3mph /  4.8km/h 49.2% 0.00in /  0mm 0 W/m2
21:19 39.2 °F /  4 °C 21.8 °F /  -5.7 °C 30.60in /  1036.1hPa Calm   3mph /  4.8km/h 49.3% 0.00in /  0mm 0 W/m2
21:24 39.1 °F /  3.9 °C 21.7 °F /  -5.7 °C 30.60in /  1036.1hPa Calm   3mph /  4.8km/h 49.2% 0.00in /  0mm 0 W/m2
21:29 39 °F /  3.9 °C 22.2 °F /  -5.4 °C 30.61in /  1036.5hPa Calm   3mph /  4.8km/h 50.5% 0.00in /  0mm 0 W/m2
21:34 38.9 °F /  3.8 °C 21.9 °F /  -5.6 °C 30.61in /  1036.5hPa Calm   3mph /  4.8km/h 50.2% 0.00in /  0mm 0 W/m2
21:39 38.8 °F /  3.8 °C 22.1 °F /  -5.5 °C 30.61in /  1036.5hPa Calm     50.6% 0.00in /  0mm 0 W/m2
21:44 38.7 °F /  3.7 °C 22.6 °F /  -5.2 °C 30.61in /  1036.5hPa Calm     52% 0.00in /  0mm 0 W/m2
21:49 38.6 °F /  3.7 °C 22 °F /  -5.6 °C 30.62in /  1036.8hPa Calm     50.8% 0.00in /  0mm 0 W/m2
21:54 38.6 °F /  3.7 °C 21.6 °F /  -5.8 °C 30.62in /  1036.8hPa Calm     50% 0.00in /  0mm 0 W/m2
21:59 38.6 °F /  3.7 °C 22.4 °F /  -5.3 °C 30.62in /  1036.8hPa Calm     51.8% 0.00in /  0mm 0 W/m2
22:04 38.4 °F /  3.6 °C 22.4 °F /  -5.3 °C 30.62in /  1036.8hPa Calm     52.2% 0.00in /  0mm 0 W/m2
22:08 38.2 °F /  3.4 °C 21.7 °F /  -5.7 °C 30.62in /  1036.8hPa Calm     50.9% 0.00in /  0mm 0 W/m2
Hartford County Weather
Compliments of Weather Underground - 4 mb